Time;durP1;ratioP1;P1;durP2;ratioP2;P2;SDS_P1;SDS_P2;PMS_P1;PMS_P2;Temp;Humidity;BMP_temperature;BMP_pressure;BME280_temperature;BME280_humidity;BME280_pressure;Samples;Min_cycle;Max_cycle;Signal;HPM_P1;HPM_P2
2021/09/10 00:02:07;;;;;;;12.73;9.07;;;;;;;12.67;81.58;90831.06;4956131;28;20104;-89
2021/09/10 00:04:32;;;;;;;12.48;8.98;;;;;;;12.60;81.40;90839.50;4955761;28;20030;-90
2021/09/10 00:06:58;;;;;;;12.02;8.95;;;;;;;12.53;81.38;90830.75;4956039;28;20038;-89
2021/09/10 00:09:23;;;;;;;11.77;8.75;;;;;;;12.47;81.81;90834.72;4955989;28;20033;-90
2021/09/10 00:11:48;;;;;;;12.38;8.88;;;;;;;12.52;81.45;90826.63;4955454;28;20050;-89
2021/09/10 00:14:14;;;;;;;13.02;9.30;;;;;;;12.43;81.94;90838.00;4956374;28;20034;-88
2021/09/10 00:16:39;;;;;;;12.95;9.25;;;;;;;12.37;81.83;90831.56;4940056;28;20088;-90
2021/09/10 00:19:05;;;;;;;15.40;9.25;;;;;;;12.37;82.19;90831.56;4939925;28;20398;-89
2021/09/10 00:21:30;;;;;;;15.05;9.30;;;;;;;12.33;82.81;90830.72;4972087;28;20402;-89
2021/09/10 00:23:56;;;;;;;15.50;9.10;;;;;;;12.25;83.22;90831.66;4940151;28;20022;-89
2021/09/10 00:26:21;;;;;;;11.07;8.23;;;;;;;12.30;82.48;90825.41;4968167;28;20028;-89
2021/09/10 00:28:47;;;;;;;14.38;9.10;;;;;;;12.22;82.79;90821.88;4969671;28;20027;-89
2021/09/10 00:31:12;;;;;;;14.45;10.00;;;;;;;12.23;83.58;90831.25;4936640;29;20396;-89
2021/09/10 00:33:38;;;;;;;13.82;9.35;;;;;;;12.16;83.71;90820.63;4952854;28;20031;-88
2021/09/10 00:36:03;;;;;;;14.13;9.93;;;;;;;12.26;83.34;90824.56;4962825;28;20030;-90
2021/09/10 00:38:30;;;;;;;14.52;9.60;;;;;;;12.19;83.47;90819.94;4956108;28;20018;-88
2021/09/10 00:40:56;;;;;;;15.25;9.82;;;;;;;12.09;84.13;90823.09;4955756;28;20058;-89
2021/09/10 00:43:21;;;;;;;13.48;9.52;;;;;;;12.05;84.59;90819.59;4955795;28;20077;-89
2021/09/10 00:45:47;;;;;;;13.00;9.57;;;;;;;11.95;85.03;90819.03;4941543;28;20538;-89
2021/09/10 00:48:13;;;;;;;13.75;9.80;;;;;;;12.06;85.08;90824.50;4959234;28;20030;-89
2021/09/10 00:50:39;;;;;;;17.33;10.00;;;;;;;12.06;84.40;90821.16;4959617;28;20046;-89
2021/09/10 00:53:04;;;;;;;17.55;9.93;;;;;;;12.06;84.74;90819.28;4959387;28;20034;-89
2021/09/10 00:55:30;;;;;;;13.45;9.93;;;;;;;12.07;84.26;90827.88;4959838;28;20035;-88
2021/09/10 00:57:55;;;;;;;12.35;9.40;;;;;;;12.16;84.29;90825.84;4959171;28;20027;-89
2021/09/10 01:00:21;;;;;;;14.25;10.40;;;;;;;12.03;84.32;90827.03;4959387;28;20030;-89
2021/09/10 01:02:46;;;;;;;15.07;9.38;;;;;;;12.02;84.66;90821.06;4959312;28;20403;-89
2021/09/10 01:05:12;;;;;;;15.80;9.90;;;;;;;12.02;85.00;90821.06;4959395;28;20497;-89
2021/09/10 01:07:37;;;;;;;14.68;10.40;;;;;;;12.05;84.60;90820.41;4939887;28;20029;-89
2021/09/10 01:10:03;;;;;;;12.20;8.75;;;;;;;12.16;84.26;90831.09;4939916;28;20082;-90
2021/09/10 01:12:29;;;;;;;12.43;9.80;;;;;;;11.94;84.38;90824.59;4940318;29;20023;-89
2021/09/10 01:14:54;;;;;;;14.48;10.25;;;;;;;11.92;84.34;90824.94;4926280;28;20376;-90
2021/09/10 01:17:20;;;;;;;13.80;10.20;;;;;;;11.91;84.65;90825.28;4942998;28;20085;-89
2021/09/10 01:19:45;;;;;;;13.30;10.13;;;;;;;11.90;84.90;90834.19;4942941;28;20026;-89
2021/09/10 01:22:11;;;;;;;16.17;10.75;;;;;;;11.92;85.12;90832.03;4942802;28;20027;-90
2021/09/10 01:24:38;;;;;;;16.63;10.27;;;;;;;11.79;85.56;90828.69;4975036;28;20035;-89
2021/09/10 01:27:03;;;;;;;16.15;10.93;;;;;;;11.80;85.23;90829.44;4955222;28;20421;-90
2021/09/10 01:29:29;;;;;;;16.15;10.60;;;;;;;11.75;85.09;90827.84;4939479;29;20480;-89
2021/09/10 01:31:55;;;;;;;17.58;10.52;;;;;;;11.84;84.65;90823.25;4951736;28;20042;-89
2021/09/10 01:34:20;;;;;;;16.90;9.88;;;;;;;11.87;83.92;90819.19;4942972;28;20062;-89
2021/09/10 01:36:46;;;;;;;16.52;10.60;;;;;;;11.84;84.65;90828.50;4943151;28;20033;-90
2021/09/10 01:39:12;;;;;;;14.23;10.30;;;;;;;11.77;85.01;90823.06;4958303;28;20026;-89
2021/09/10 01:41:37;;;;;;;19.27;10.07;;;;;;;11.76;85.39;90824.13;4943109;28;20493;-89
2021/09/10 01:44:03;;;;;;;14.55;10.35;;;;;;;11.79;85.32;90826.09;4958646;28;20019;-90
2021/09/10 01:46:28;;;;;;;16.17;11.18;;;;;;;11.74;85.69;90818.50;4955494;28;20034;-89
2021/09/10 01:48:54;;;;;;;14.80;10.13;;;;;;;11.77;85.88;90828.28;4955419;29;20086;-89
2021/09/10 01:51:27;;;;;;;14.82;10.50;;;;;;;11.76;85.57;90829.38;4938960;28;20027;-89
2021/09/10 01:53:53;;;;;;;18.70;10.68;;;;;;;11.85;85.25;90827.38;4923291;29;20089;-89
2021/09/10 01:56:18;;;;;;;13.43;9.80;;;;;;;11.79;85.39;90823.47;4949760;28;20034;-90
2021/09/10 01:58:43;;;;;;;16.15;10.27;;;;;;;11.78;85.44;90827.19;4957942;28;20031;-90
2021/09/10 02:01:09;;;;;;;17.30;10.63;;;;;;;11.79;85.63;90822.72;4986614;23;20043;-88
2021/09/10 02:03:34;;;;;;;13.95;10.13;;;;;;;11.82;85.50;90820.19;4956709;28;20026;-87
2021/09/10 02:06:00;;;;;;;13.43;10.50;;;;;;;11.78;85.60;90816.75;4973099;28;20031;-87
2021/09/10 02:08:25;;;;;;;17.10;10.98;;;;;;;11.78;85.84;90821.97;4957735;28;20481;-88
2021/09/10 02:10:50;;;;;;;17.05;11.38;;;;;;;11.75;85.91;90817.41;4973431;28;20027;-88
2021/09/10 02:13:16;;;;;;;13.30;9.88;;;;;;;11.77;85.78;90815.22;4957536;28;20471;-88
2021/09/10 02:15:41;;;;;;;15.35;10.23;;;;;;;11.87;85.33;90827.81;4974694;28;20026;-88
2021/09/10 02:18:07;;;;;;;15.27;10.70;;;;;;;11.83;85.37;90821.69;4957216;28;20046;-87
2021/09/10 02:20:32;;;;;;;13.30;9.75;;;;;;;11.89;85.20;90817.78;4957377;28;20030;-88
2021/09/10 02:22:58;;;;;;;15.55;10.63;;;;;;;11.92;85.29;90827.56;4973593;28;20061;-88
2021/09/10 02:25:23;;;;;;;14.85;10.13;;;;;;;11.87;85.32;90819.97;4957197;28;20423;-88
2021/09/10 02:27:48;;;;;;;15.77;10.30;;;;;;;11.89;85.23;90817.78;4957075;28;20398;-88
2021/09/10 02:30:14;;;;;;;20.48;11.02;;;;;;;11.84;85.47;90820.66;4956638;28;20081;-87
2021/09/10 02:32:39;;;;;;;15.60;10.57;;;;;;;11.85;85.67;90818.78;4957431;28;20070;-87
2021/09/10 02:35:05;;;;;;;13.57;10.10;;;;;;;11.91;85.20;90817.47;4957069;28;20026;-87
2021/09/10 02:37:30;;;;;;;16.38;10.32;;;;;;;11.91;85.38;90820.81;4972449;28;20154;-87
2021/09/10 02:39:56;;;;;;;14.82;10.25;;;;;;;11.98;85.22;90819.44;4973132;28;20505;-88
2021/09/10 02:42:21;;;;;;;12.93;9.98;;;;;;;11.99;85.14;90820.97;4973057;28;20039;-88
2021/09/10 02:44:47;;;;;;;16.75;9.77;;;;;;;11.96;85.06;90822.41;4957083;28;20038;-88
2021/09/10 02:47:12;;;;;;;14.68;10.60;;;;;;;11.86;85.77;90821.06;4972805;28;20019;-88
2021/09/10 02:49:37;;;;;;;16.50;10.68;;;;;;;11.89;85.84;90817.78;4956802;28;20026;-88
2021/09/10 02:52:03;;;;;;;14.88;10.68;;;;;;;11.87;86.03;90814.75;4956634;28;20558;-86
2021/09/10 02:54:30;;;;;;;17.60;10.52;;;;;;;11.90;85.94;90803.63;4957090;28;20023;-88
2021/09/10 02:56:55;;;;;;;16.20;10.60;;;;;;;11.90;85.93;90808.84;4953159;28;20023;-89
2021/09/10 02:59:21;;;;;;;15.70;10.88;;;;;;;11.86;85.83;90807.25;4953519;28;20082;-87
2021/09/10 03:01:47;;;;;;;13.98;9.85;;;;;;;11.92;85.67;90816.34;4937294;29;20494;-88
2021/09/10 03:04:13;;;;;;;15.98;10.55;;;;;;;11.87;85.92;90811.38;4937527;29;20368;-88
2021/09/10 03:06:38;;;;;;;17.02;10.48;;;;;;;11.93;86.00;90810.78;4955574;28;20487;-87
2021/09/10 03:09:03;;;;;;;14.77;10.80;;;;;;;11.87;86.12;90801.69;4971867;28;20026;-89
2021/09/10 03:11:29;;;;;;;15.50;10.93;;;;;;;12.00;86.00;90809.44;4956593;28;20031;-87
2021/09/10 03:13:54;;;;;;;18.30;10.82;;;;;;;11.94;86.29;90808.91;4940227;28;20049;-88
2021/09/10 03:16:20;;;;;;;16.02;10.40;;;;;;;12.07;85.79;90796.53;4956161;28;20398;-88
2021/09/10 03:18:45;;;;;;;15.95;11.13;;;;;;;12.04;86.19;90807.66;4956008;28;20058;-88
2021/09/10 03:21:11;;;;;;;16.00;10.80;;;;;;;12.05;86.20;90803.94;4956508;28;20062;-88
2021/09/10 03:23:36;;;;;;;16.10;10.57;;;;;;;12.14;86.41;90801.91;4952904;28;20023;-87
2021/09/10 03:26:01;;;;;;;17.02;11.35;;;;;;;11.98;87.13;90807.16;4923433;29;20038;-88
2021/09/10 03:28:27;;;;;;;16.45;11.55;;;;;;;12.09;86.98;90804.81;4952748;29;20024;-87
2021/09/10 03:30:52;;;;;;;16.02;11.52;;;;;;;12.02;87.19;90804.66;4968938;28;20038;-87
2021/09/10 03:33:18;;;;;;;17.33;11.38;;;;;;;11.99;87.66;90794.88;4952772;29;20106;-88
2021/09/10 03:35:43;;;;;;;15.48;10.85;;;;;;;12.16;87.22;90802.34;4952513;29;20037;-88
2021/09/10 03:38:08;;;;;;;16.90;11.43;;;;;;;12.09;87.00;90800.34;4920622;29;20434;-88
2021/09/10 03:40:35;;;;;;;16.67;11.20;;;;;;;12.10;87.43;90790.63;4952707;28;20090;-86
2021/09/10 03:43:05;;;;;;;17.02;11.25;;;;;;;12.15;87.18;90785.13;4936908;29;20031;-88
2021/09/10 03:45:30;;;;;;;18.58;11.57;;;;;;;12.13;87.52;90800.41;4925589;28;20027;-88
2021/09/10 03:47:56;;;;;;;19.05;12.35;;;;;;;12.11;87.91;90797.38;4955632;28;20482;-88
2021/09/10 03:50:21;;;;;;;17.73;11.38;;;;;;;12.02;88.42;90792.34;4936236;28;20023;-88
2021/09/10 03:52:47;;;;;;;19.50;11.77;;;;;;;12.07;88.63;90789.44;4936564;29;20019;-87
2021/09/10 03:55:14;;;;;;;16.73;12.25;;;;;;;12.03;89.37;90787.88;4949097;28;20074;-87
2021/09/10 03:57:40;;;;;;;17.33;11.88;;;;;;;12.10;89.38;90785.41;4955776;28;20503;-88
2021/09/10 04:00:06;;;;;;;17.13;10.95;;;;;;;12.13;88.27;90782.13;4971125;28;20062;-87
2021/09/10 04:02:31;;;;;;;19.30;11.77;;;;;;;12.13;88.68;90785.50;4939711;28;20034;-88
2021/09/10 04:04:56;;;;;;;15.38;11.65;;;;;;;12.13;88.93;90795.19;4972967;28;20027;-90
2021/09/10 04:07:22;;;;;;;18.42;12.60;;;;;;;12.12;89.47;90793.66;4962253;28;20184;-91
2021/09/10 04:09:47;;;;;;;16.15;11.88;;;;;;;12.26;89.36;90793.22;4960700;29;20012;-88
2021/09/10 04:12:12;;;;;;;18.58;12.02;;;;;;;12.16;90.22;90799.75;4937219;29;20027;-87
2021/09/10 04:14:38;;;;;;;16.50;12.10;;;;;;;12.12;89.69;90793.66;4952732;28;20510;-87
2021/09/10 04:17:03;;;;;;;20.10;12.57;;;;;;;12.24;89.24;90790.19;4968020;28;20039;-85
2021/09/10 04:19:29;;;;;;;21.63;13.40;;;;;;;12.25;89.43;90786.47;4955191;28;20439;-89
2021/09/10 04:21:54;;;;;;;21.13;12.63;;;;;;;12.21;89.53;90796.84;4938965;28;20026;-87
2021/09/10 04:24:19;;;;;;;17.10;12.30;;;;;;;12.19;90.65;90801.66;4939039;28;20022;-87
2021/09/10 04:26:45;;;;;;;15.88;11.88;;;;;;;12.15;90.47;90800.81;4955134;28;20029;-88
2021/09/10 04:29:10;;;;;;;18.20;12.35;;;;;;;12.14;90.22;90799.31;4971531;28;20439;-88
2021/09/10 04:31:36;;;;;;;21.52;12.15;;;;;;;12.14;90.46;90794.09;4939391;28;20034;-87
2021/09/10 04:34:01;;;;;;;19.85;12.18;;;;;;;12.14;90.41;90796.69;4971158;28;20027;-87
2021/09/10 04:36:26;;;;;;;18.52;12.48;;;;;;;12.13;90.50;90795.19;4971078;28;20031;-87
2021/09/10 04:38:52;;;;;;;17.98;12.48;;;;;;;12.15;90.58;90788.50;4954955;28;20398;-88
2021/09/10 04:41:17;;;;;;;20.63;11.90;;;;;;;12.17;90.41;90788.94;4955490;28;20080;-87
2021/09/10 04:43:43;;;;;;;17.60;12.70;;;;;;;12.23;90.34;90791.31;4971231;28;20030;-88
2021/09/10 04:46:08;;;;;;;17.60;11.85;;;;;;;12.22;90.15;90792.38;4939139;28;20023;-88
2021/09/10 04:48:33;;;;;;;17.33;11.85;;;;;;;12.16;90.11;90779.59;4954772;28;20026;-87
2021/09/10 04:50:59;;;;;;;17.77;12.68;;;;;;;12.16;90.05;90784.06;4968030;28;20360;-88
2021/09/10 04:53:24;;;;;;;17.20;11.63;;;;;;;12.22;89.75;90782.69;4953745;28;20034;-88
2021/09/10 04:55:50;;;;;;;20.23;12.05;;;;;;;12.16;90.23;90791.91;4955165;28;20422;-87
2021/09/10 04:58:15;;;;;;;19.20;12.80;;;;;;;12.28;89.86;90791.78;4954709;28;20030;-88
2021/09/10 05:00:40;;;;;;;19.63;12.65;;;;;;;12.18;90.08;90800.13;4971071;28;20031;-87
2021/09/10 05:03:06;;;;;;;22.10;12.80;;;;;;;12.23;90.39;90796.53;4954922;28;20023;-88
2021/09/10 05:05:31;;;;;;;18.10;12.38;;;;;;;12.27;89.84;90797.34;4971363;28;20027;-87
2021/09/10 05:07:57;;;;;;;15.98;11.43;;;;;;;12.18;90.03;90800.13;4954371;28;20035;-87
2021/09/10 05:10:22;;;;;;;20.73;12.77;;;;;;;12.17;90.26;90801.25;4972217;28;20027;-87
2021/09/10 05:12:47;;;;;;;17.15;11.50;;;;;;;12.20;90.38;90800.56;4955048;28;20019;-87
2021/09/10 05:15:13;;;;;;;16.15;11.77;;;;;;;12.24;89.87;90796.19;4954959;28;20073;-87
2021/09/10 05:17:38;;;;;;;17.48;11.80;;;;;;;12.28;89.93;90799.63;4971901;28;20038;-88
2021/09/10 05:20:08;;;;;;;16.83;11.55;;;;;;;12.22;89.89;90798.34;4970713;28;20051;-86
2021/09/10 05:22:33;;;;;;;20.38;11.93;;;;;;;12.32;89.61;90804.91;4953589;28;20031;-86
2021/09/10 05:24:58;;;;;;;17.10;11.65;;;;;;;12.42;89.16;90802.53;4954925;28;20022;-88
2021/09/10 05:27:24;;;;;;;17.02;11.98;;;;;;;12.67;88.14;90804.91;4952451;28;20027;-88
2021/09/10 05:29:49;;;;;;;20.58;11.85;;;;;;;12.41;89.01;90795.03;4970849;28;20030;-88
2021/09/10 05:32:15;;;;;;;17.60;12.40;;;;;;;12.34;89.73;90798.25;4956241;28;20035;-90
2021/09/10 05:34:40;;;;;;;18.80;13.10;;;;;;;12.23;90.06;90807.72;4958186;28;20042;-90
2021/09/10 05:37:05;;;;;;;19.13;12.77;;;;;;;12.17;90.17;90806.47;4944903;29;20095;-87
2021/09/10 05:39:31;;;;;;;18.58;12.32;;;;;;;12.19;90.08;90804.25;4954938;28;20395;-88
2021/09/10 05:41:56;;;;;;;20.50;12.38;;;;;;;12.20;89.68;90805.78;4954790;28;20403;-88
2021/09/10 05:44:22;;;;;;;20.45;13.13;;;;;;;12.21;90.11;90812.53;4954856;29;20090;-87
2021/09/10 05:46:47;;;;;;;24.05;13.35;;;;;;;12.16;90.30;90812.81;4955600;28;20038;-88
2021/09/10 05:49:12;;;;;;;19.30;12.13;;;;;;;12.23;90.50;90820.78;4954555;28;20027;-87
2021/09/10 05:51:38;;;;;;;19.33;12.68;;;;;;;12.18;90.29;90808.72;4957382;28;20561;-88
2021/09/10 05:54:03;;;;;;;20.52;13.82;;;;;;;12.23;90.54;90815.56;4941713;28;20030;-86
2021/09/10 05:56:29;;;;;;;20.05;14.13;;;;;;;12.19;90.99;90815.50;4941943;28;20114;-87
2021/09/10 05:58:54;;;;;;;21.27;13.55;;;;;;;12.32;90.64;90810.16;4974781;28;20557;-88
2021/09/10 06:01:19;;;;;;;18.20;12.70;;;;;;;12.40;89.91;90807.34;4969526;28;20038;-86
2021/09/10 06:03:45;;;;;;;19.77;12.25;;;;;;;12.57;88.99;90819.28;4954567;28;20021;-88
2021/09/10 06:06:10;;;;;;;19.20;11.75;;;;;;;12.59;89.10;90822.31;4972990;28;20037;-88
2021/09/10 06:08:36;;;;;;;18.02;12.50;;;;;;;12.59;88.70;90818.94;4937292;29;20027;-87
2021/09/10 06:11:02;;;;;;;18.52;11.68;;;;;;;12.63;88.67;90827.63;4954147;28;20023;-88
2021/09/10 06:13:27;;;;;;;18.60;12.43;;;;;;;12.66;88.99;90827.69;4951498;28;20030;-88
2021/09/10 06:15:53;;;;;;;19.38;13.18;;;;;;;12.60;89.33;90836.13;4957182;28;20027;-88
2021/09/10 06:18:18;;;;;;;21.05;13.77;;;;;;;12.63;89.90;90832.84;4972889;28;20026;-89
2021/09/10 06:20:44;;;;;;;18.23;13.18;;;;;;;12.66;89.75;90832.91;4956648;28;20034;-88
2021/09/10 06:23:09;;;;;;;16.98;12.32;;;;;;;12.73;89.78;90837.53;4972770;28;20590;-88
2021/09/10 06:25:34;;;;;;;20.27;13.45;;;;;;;12.80;89.06;90827.22;4973054;28;20408;-87
2021/09/10 06:28:00;;;;;;;22.80;13.77;;;;;;;12.78;89.25;90823.44;4956812;28;20034;-88
2021/09/10 06:30:25;;;;;;;20.02;12.93;;;;;;;12.79;89.29;90820.50;4953693;28;20038;-87
2021/09/10 06:32:51;;;;;;;20.15;12.30;;;;;;;12.85;88.64;90819.09;4955517;29;20027;-90
2021/09/10 06:35:16;;;;;;;16.98;12.40;;;;;;;12.96;88.64;90821.91;4969277;28;20034;-88
2021/09/10 06:37:41;;;;;;;16.63;12.55;;;;;;;12.95;87.70;90832.75;4974133;28;20030;-88
2021/09/10 06:40:08;;;;;;;18.52;13.38;;;;;;;13.05;88.32;90826.97;4962239;28;20026;-88
2021/09/10 06:42:33;;;;;;;17.88;12.55;;;;;;;13.12;87.73;90830.47;4957574;28;20030;-87
2021/09/10 06:44:59;;;;;;;17.77;12.25;;;;;;;13.26;87.81;90832.63;4941226;28;20539;-88
2021/09/10 06:47:24;;;;;;;18.38;11.88;;;;;;;13.33;88.09;90824.91;4956987;28;20034;-88
2021/09/10 06:49:50;;;;;;;17.83;12.55;;;;;;;13.49;88.04;90831.91;4951008;28;20027;-93
2021/09/10 06:52:15;;;;;;;20.05;12.90;;;;;;;13.61;87.25;90831.75;4939941;29;20031;-89
2021/09/10 06:54:41;;;;;;;16.75;11.65;;;;;;;13.72;86.94;90831.94;4954280;29;20023;-89
2021/09/10 06:57:06;;;;;;;18.55;12.45;;;;;;;13.83;87.73;90833.63;4938329;29;20034;-88
2021/09/10 06:59:31;;;;;;;19.35;14.10;;;;;;;13.80;88.03;90830.94;4938661;29;20480;-89
2021/09/10 07:01:57;;;;;;;19.63;12.88;;;;;;;13.84;87.17;90835.13;4922320;29;20599;-88
2021/09/10 07:04:22;;;;;;;17.02;12.13;;;;;;;13.90;86.84;90840.09;4942180;28;20034;-89
2021/09/10 07:06:48;;;;;;;18.95;12.85;;;;;;;13.94;87.42;90848.75;4972491;28;20023;-92
2021/09/10 07:09:13;;;;;;;17.58;11.88;;;;;;;14.04;85.95;90843.69;4960264;28;20042;-89
2021/09/10 07:11:40;;;;;;;17.67;12.57;;;;;;;14.14;86.11;90842.34;4971685;28;20039;-89
2021/09/10 07:14:06;;;;;;;19.33;11.90;;;;;;;14.16;85.61;90850.59;4956889;28;20406;-89
2021/09/10 07:16:32;;;;;;;16.98;12.75;;;;;;;14.21;85.85;90845.09;4956988;28;20027;-89
2021/09/10 07:18:58;;;;;;;18.13;12.02;;;;;;;14.23;85.21;90848.09;4956471;28;20149;-88
2021/09/10 07:21:23;;;;;;;16.20;12.63;;;;;;;14.30;86.19;90845.59;4940902;28;20043;-89
2021/09/10 07:23:49;;;;;;;19.13;12.50;;;;;;;14.45;84.58;90845.78;4978980;28;20080;-92
2021/09/10 07:26:15;;;;;;;21.02;12.38;;;;;;;14.65;83.18;90847.25;4983300;28;20011;-91
2021/09/10 07:28:41;;;;;;;17.50;11.73;;;;;;;14.68;83.40;90848.41;4959681;28;20085;-88
2021/09/10 07:31:06;;;;;;;18.42;11.57;;;;;;;14.78;82.88;90834.69;4954950;28;20635;-90
2021/09/10 07:33:36;;;;;;;16.13;10.90;;;;;;;14.90;79.37;90844.19;4972285;28;20106;-89
2021/09/10 07:36:01;;;;;;;14.77;11.30;;;;;;;15.10;81.37;90847.44;4972236;28;20101;-89
2021/09/10 07:38:26;;;;;;;17.77;11.82;;;;;;;15.26;81.18;90851.41;4939985;28;20479;-89
2021/09/10 07:40:52;;;;;;;15.65;10.48;;;;;;;15.33;80.41;90849.97;4952741;28;20042;-90
2021/09/10 07:43:17;;;;;;;15.48;10.73;;;;;;;15.26;78.94;90843.53;4945874;28;20443;-92
2021/09/10 07:45:43;;;;;;;15.90;10.35;;;;;;;15.50;76.95;90852.78;4954046;28;20031;-91
2021/09/10 07:48:08;;;;;;;15.50;10.25;;;;;;;15.70;77.50;90850.03;4975902;28;20026;-89
2021/09/10 07:50:34;;;;;;;15.02;10.40;;;;;;;15.66;78.50;90850.00;4956818;28;20034;-90
2021/09/10 07:52:59;;;;;;;18.27;10.80;;;;;;;15.66;75.98;90851.88;4959579;28;20019;-92
2021/09/10 07:55:25;;;;;;;15.90;10.77;;;;;;;15.68;75.47;90860.88;4960302;28;20505;-90
2021/09/10 07:57:50;;;;;;;15.85;10.07;;;;;;;15.74;74.65;90864.69;4961897;28;20039;-90
2021/09/10 08:03:02;;;;;;;13.65;9.52;;;;;;;15.84;72.86;90862.53;4971673;28;20061;-87
2021/09/10 08:05:27;;;;;;;18.60;10.57;;;;;;;15.73;72.83;90863.19;4957053;28;20027;-88
2021/09/10 08:07:53;;;;;;;14.98;9.45;;;;;;;15.83;72.32;90858.38;4956351;28;20044;-88
2021/09/10 08:10:18;;;;;;;15.63;9.80;;;;;;;15.93;72.68;90865.63;4956974;28;20093;-89
2021/09/10 08:12:44;;;;;;;16.23;10.27;;;;;;;15.89;72.87;90862.22;4938043;28;20031;-87
2021/09/10 08:15:10;;;;;;;16.65;10.05;;;;;;;15.91;72.84;90865.25;4952993;29;20090;-88
2021/09/10 08:17:36;;;;;;;14.60;9.75;;;;;;;16.04;72.40;90868.34;4953869;28;20361;-86
2021/09/10 08:20:02;;;;;;;13.57;9.77;;;;;;;15.87;71.83;90867.84;4933892;29;20023;-89
2021/09/10 08:22:28;;;;;;;15.55;9.35;;;;;;;15.99;71.61;90872.06;4952727;28;20027;-89
2021/09/10 08:24:54;;;;;;;13.45;8.60;;;;;;;16.01;71.15;90877.72;4937643;29;20387;-89
2021/09/10 08:27:20;;;;;;;13.23;8.93;;;;;;;15.98;70.21;90883.69;4953179;28;20125;-86
2021/09/10 08:29:45;;;;;;;16.00;8.93;;;;;;;15.98;71.02;90881.81;4953099;28;20027;-86
2021/09/10 08:32:10;;;;;;;12.57;8.70;;;;;;;16.16;70.55;90886.50;4936528;29;20348;-89
2021/09/10 08:34:36;;;;;;;12.10;8.95;;;;;;;16.11;71.24;90879.66;4920847;29;20027;-90
2021/09/10 08:37:09;;;;;;;12.32;8.45;;;;;;;16.11;71.59;90877.03;4937251;29;20403;-90
2021/09/10 08:39:35;;;;;;;12.23;8.48;;;;;;;16.29;70.66;90881.69;4952277;29;20036;-87
2021/09/10 08:42:00;;;;;;;14.00;8.48;;;;;;;16.51;69.47;90890.53;4952647;28;20042;-87
2021/09/10 08:44:26;;;;;;;13.52;8.27;;;;;;;16.37;70.24;90883.28;4936770;29;20026;-88
2021/09/10 08:46:52;;;;;;;11.27;7.90;;;;;;;16.53;68.79;90880.41;4937652;29;20114;-88
2021/09/10 08:49:17;;;;;;;11.00;8.10;;;;;;;16.79;68.70;90887.38;4953045;28;20023;-90
2021/09/10 08:51:43;;;;;;;10.77;8.20;;;;;;;16.84;68.16;90887.03;4952586;29;20033;-88
2021/09/10 08:54:08;;;;;;;11.85;8.25;;;;;;;16.90;68.33;90877.69;4952806;28;20027;-88
2021/09/10 08:56:34;;;;;;;12.73;7.80;;;;;;;16.94;65.32;90894.25;4937584;29;20139;-88
2021/09/10 08:59:10;;;;;;;10.40;7.28;;;;;;;16.94;63.70;90888.97;4952781;29;20023;-88
2021/09/10 09:01:45;;;;;;;9.75;7.60;;;;;;;16.85;63.72;90896.44;4936811;29;20031;-88
2021/09/10 09:04:12;;;;;;;10.75;7.60;;;;;;;16.94;62.97;90897.63;4937330;29;20472;-88
2021/09/10 09:06:38;;;;;;;11.25;7.93;;;;;;;17.06;62.34;90893.19;4954855;28;20487;-86
2021/09/10 09:09:03;;;;;;;11.77;7.88;;;;;;;16.95;62.80;90898.38;4956678;28;20078;-86
2021/09/10 09:11:29;;;;;;;11.82;8.18;;;;;;;16.92;62.77;90885.94;4956951;28;20019;-88
2021/09/10 09:13:55;;;;;;;11.35;7.47;;;;;;;17.10;61.42;90888.69;4956725;28;20483;-89
2021/09/10 09:16:29;;;;;;;13.55;8.35;;;;;;;17.04;62.07;90890.94;4957231;28;20034;-91
2021/09/10 09:18:57;;;;;;;11.88;7.72;;;;;;;17.04;62.45;90898.06;4957494;28;20035;-89
2021/09/10 09:21:33;;;;;;;12.43;8.23;;;;;;;17.08;62.21;90899.59;4958203;28;20372;-88
2021/09/10 09:24:14;;;;;;;14.70;8.57;;;;;;;17.24;63.52;90903.81;4957123;28;20106;-87
2021/09/10 09:26:41;;;;;;;13.13;9.27;;;;;;;17.06;62.64;90896.56;4957052;29;20027;-88
2021/09/10 09:29:12;;;;;;;12.88;8.63;;;;;;;17.01;63.16;90904.06;4956339;29;20023;-88
2021/09/10 09:31:37;;;;;;;12.15;9.30;;;;;;;17.19;62.86;90903.03;4957041;29;20023;-88
2021/09/10 09:34:04;;;;;;;12.75;8.73;;;;;;;17.21;63.07;90907.94;4941046;29;20081;-89
2021/09/10 09:36:29;;;;;;;14.10;8.65;;;;;;;17.24;63.00;90907.19;4956800;28;20023;-89
2021/09/10 09:38:55;;;;;;;12.52;9.13;;;;;;;17.37;63.55;90908.38;4940886;29;20111;-88
2021/09/10 09:41:22;;;;;;;15.05;9.23;;;;;;;17.52;63.24;90900.53;4940570;29;20122;-86
2021/09/10 09:43:52;;;;;;;12.40;8.88;;;;;;;17.72;63.30;90898.38;4954507;28;20106;-92
2021/09/10 09:46:21;;;;;;;12.48;8.70;;;;;;;17.79;63.04;90909.72;4932434;29;20035;-89
2021/09/10 09:48:48;;;;;;;13.65;9.07;;;;;;;17.78;61.10;90907.47;4953808;29;20035;-88
2021/09/10 09:51:15;;;;;;;15.05;9.55;;;;;;;17.59;61.27;90897.94;4924008;29;20031;-88
2021/09/10 09:53:41;;;;;;;15.68;8.80;;;;;;;17.81;60.23;90904.06;4939479;29;20425;-88
2021/09/10 09:56:08;;;;;;;13.07;9.38;;;;;;;17.71;60.33;90907.41;4940599;29;20055;-91
2021/09/10 09:58:34;;;;;;;15.18;9.60;;;;;;;17.84;60.39;90913.88;4940515;29;20451;-87
2021/09/10 10:00:59;;;;;;;15.57;9.20;;;;;;;17.98;59.20;90905.25;4955802;28;20039;-88
2021/09/10 10:03:25;;;;;;;14.13;9.95;;;;;;;18.14;59.75;90903.03;4940374;29;20031;-87
2021/09/10 10:06:02;;;;;;;11.98;9.20;;;;;;;18.31;59.48;90907.59;4939150;29;20027;-88
2021/09/10 10:08:45;;;;;;;15.90;9.02;;;;;;;18.51;58.53;90907.97;4956694;29;20062;-88
2021/09/10 10:11:12;;;;;;;15.98;9.52;;;;;;;18.58;58.99;90904.56;4971759;28;20054;-88
2021/09/10 10:13:38;;;;;;;11.73;9.00;;;;;;;18.49;57.72;90896.28;4940726;29;20038;-89
2021/09/10 10:16:03;;;;;;;13.73;9.07;;;;;;;19.04;57.73;90899.28;4938072;29;20031;-89
2021/09/10 10:18:43;;;;;;;14.52;8.98;;;;;;;19.27;55.28;90898.13;4906966;29;20020;-89
2021/09/10 10:21:13;;;;;;;12.65;8.73;;;;;;;19.17;55.19;90901.53;4923530;29;20038;-87
2021/09/10 10:23:41;;;;;;;12.50;8.38;;;;;;;19.32;54.05;90897.72;4923798;29;20032;-87
2021/09/10 10:26:18;;;;;;;12.05;8.73;;;;;;;19.65;54.49;90893.13;4955727;29;20030;-88
2021/09/10 10:28:44;;;;;;;10.95;8.45;;;;;;;19.68;54.44;90897.63;4921977;29;20464;-88
2021/09/10 10:31:11;;;;;;;11.68;8.48;;;;;;;19.39;53.69;90902.22;4940405;29;20079;-87
2021/09/10 10:33:36;;;;;;;12.73;7.90;;;;;;;19.33;54.68;90896.59;4940735;29;20376;-89
2021/09/10 10:36:31;;;;;;;11.73;8.70;;;;;;;19.13;55.09;90912.13;4941063;28;20027;-86
2021/09/10 10:39:15;;;;;;;11.90;8.75;;;;;;;19.30;55.15;90897.38;4956874;28;20023;-86
2021/09/10 10:41:47;;;;;;;11.13;8.10;;;;;;;19.24;55.55;90906.81;4941040;28;20031;-87
2021/09/10 10:44:35;;;;;;;13.75;8.27;;;;;;;19.40;54.81;90907.16;4957140;28;20494;-90
2021/09/10 10:47:10;;;;;;;11.02;8.40;;;;;;;19.61;54.16;90889.69;4946943;29;20031;-89
2021/09/10 10:49:36;;;;;;;12.77;8.60;;;;;;;19.48;53.83;90900.69;4941579;29;20079;-88
2021/09/10 10:52:18;;;;;;;14.63;8.65;;;;;;;19.73;53.66;90884.78;4940553;29;20023;-88
2021/09/10 10:54:43;;;;;;;10.20;8.15;;;;;;;19.91;53.69;90884.69;4957373;28;20039;-89
2021/09/10 10:57:25;;;;;;;11.95;8.70;;;;;;;19.87;53.92;90894.53;4940456;29;20027;-90
2021/09/10 10:59:51;;;;;;;13.02;8.80;;;;;;;19.86;54.16;90889.63;4940880;29;20031;-91
2021/09/10 11:02:32;;;;;;;12.00;9.15;;;;;;;19.77;53.63;90885.50;4940598;29;20166;-88
2021/09/10 11:05:02;;;;;;;11.70;8.95;;;;;;;19.86;54.36;90881.69;4941486;29;20042;-88
2021/09/10 11:07:28;;;;;;;12.18;8.70;;;;;;;20.05;53.88;90884.63;4956486;29;20031;-89
2021/09/10 11:10:02;;;;;;;14.13;9.27;;;;;;;20.24;53.98;90882.59;4941309;28;20027;-89
2021/09/10 11:12:27;;;;;;;12.15;8.40;;;;;;;20.16;52.41;90889.84;4941694;28;20514;-89
2021/09/10 11:14:53;;;;;;;10.98;8.68;;;;;;;19.74;51.89;90890.81;4940608;29;20039;-88
2021/09/10 11:17:25;;;;;;;11.85;8.70;;;;;;;19.59;54.01;90888.19;4941452;29;20026;-88
2021/09/10 11:19:51;;;;;;;12.68;9.00;;;;;;;19.54;53.66;90880.69;4942102;29;20031;-88